createdAt,value
2022-11-30T00:02:33.927Z,72.50
2022-11-30T00:06:11.083Z,68.50
2022-11-30T00:09:37.761Z,71.30
2022-11-30T00:13:04.881Z,66.10
2022-11-30T00:16:34.468Z,69.10
2022-11-30T00:20:01.438Z,63.70
2022-11-30T00:23:35.762Z,69.00
2022-11-30T00:27:07.016Z,71.30
2022-11-30T00:30:46.592Z,68.50
2022-11-30T00:34:27.424Z,71.10
2022-11-30T00:38:04.874Z,69.70
2022-11-30T00:41:55.397Z,69.60
2022-11-30T00:45:41.452Z,72.30
2022-11-30T00:49:16.236Z,70.50
2022-11-30T00:52:43.851Z,67.10
2022-11-30T00:56:12.694Z,65.20
2022-11-30T00:59:42.254Z,66.80
2022-11-30T01:03:09.041Z,66.60
2022-11-30T01:06:40.365Z,68.10
2022-11-30T01:10:12.300Z,64.00
2022-11-30T01:13:40.818Z,67.30
2022-11-30T01:17:08.729Z,66.70
2022-11-30T01:20:38.055Z,62.90
2022-11-30T01:24:05.190Z,67.70
2022-11-30T01:27:36.110Z,66.10
2022-11-30T01:31:09.744Z,63.60
2022-11-30T01:34:39.041Z,71.60
2022-11-30T01:38:11.152Z,62.10
2022-11-30T01:41:42.280Z,64.50
2022-11-30T01:45:14.611Z,63.00
2022-11-30T01:48:42.386Z,60.50
2022-11-30T01:52:15.110Z,61.70
2022-11-30T01:55:45.761Z,55.20
2022-11-30T01:59:15.810Z,57.00
2022-11-30T02:02:51.591Z,56.10
2022-11-30T02:06:19.317Z,55.40
2022-11-30T02:09:47.612Z,58.90
2022-11-30T02:13:34.666Z,57.00
2022-11-30T02:17:11.755Z,57.20
2022-11-30T02:20:51.352Z,59.00
2022-11-30T02:24:42.658Z,56.90
2022-11-30T02:28:40.069Z,52.70
2022-11-30T02:32:11.247Z,56.10
2022-11-30T02:35:40.504Z,53.10
2022-11-30T02:39:08.850Z,52.80
2022-11-30T02:42:36.079Z,57.60
2022-11-30T02:46:08.447Z,51.40
2022-11-30T02:53:06.764Z,53.60
2022-11-30T02:56:35.997Z,56.00
2022-11-30T03:00:10.888Z,50.60
2022-11-30T03:03:38.025Z,51.90
2022-11-30T03:07:04.914Z,51.70
2022-11-30T03:10:34.432Z,50.10
2022-11-30T03:14:03.408Z,50.10
2022-11-30T03:17:30.130Z,51.20
2022-11-30T03:20:57.144Z,48.10
2022-11-30T03:24:27.544Z,48.90
2022-11-30T03:27:55.807Z,49.30
2022-11-30T03:31:22.811Z,50.00
2022-11-30T03:34:52.720Z,54.40
2022-11-30T03:38:20.682Z,59.10
2022-11-30T03:41:50.433Z,58.20
2022-11-30T03:45:17.639Z,60.10
2022-11-30T03:48:45.417Z,62.10
2022-11-30T03:52:13.074Z,65.00
2022-11-30T03:55:40.273Z,61.70
2022-11-30T03:59:17.340Z,64.40
2022-11-30T04:02:46.901Z,65.80
2022-11-30T04:06:17.084Z,69.30
2022-11-30T04:09:43.700Z,70.70
2022-11-30T04:13:12.900Z,68.80
2022-11-30T04:16:39.484Z,69.10
2022-11-30T04:20:09.669Z,67.90
2022-11-30T04:23:38.836Z,69.30
2022-11-30T04:27:06.719Z,68.10
2022-11-30T04:30:36.099Z,67.30
2022-11-30T04:34:03.838Z,71.80
2022-11-30T04:37:31.009Z,70.10
2022-11-30T04:41:10.358Z,68.30
2022-11-30T04:44:36.766Z,76.90
2022-11-30T04:48:09.041Z,69.50
2022-11-30T04:51:36.439Z,75.00
2022-11-30T04:55:04.580Z,74.30
2022-11-30T04:58:31.700Z,75.50
2022-11-30T05:01:59.500Z,76.50
2022-11-30T05:05:26.917Z,81.30
2022-11-30T05:08:54.965Z,79.10
2022-11-30T05:12:21.800Z,75.50
2022-11-30T05:15:50.131Z,79.20
2022-11-30T05:19:18.187Z,78.40
2022-11-30T05:22:45.962Z,77.80
2022-11-30T05:26:12.721Z,80.20
2022-11-30T05:29:40.612Z,82.50
2022-11-30T05:33:10.429Z,86.10
2022-11-30T05:36:44.213Z,74.70
2022-11-30T05:40:13.105Z,76.70
2022-11-30T05:43:39.714Z,77.30
2022-11-30T05:47:06.013Z,84.40
2022-11-30T05:50:32.837Z,79.80
2022-11-30T05:53:59.675Z,75.30
2022-11-30T05:57:26.586Z,73.80
2022-11-30T06:00:53.535Z,80.00
2022-11-30T06:04:26.101Z,87.40
2022-11-30T06:07:52.746Z,88.60
2022-11-30T06:11:20.107Z,89.60
2022-11-30T06:14:46.952Z,85.60
2022-11-30T06:18:15.567Z,88.50
2022-11-30T06:21:42.002Z,93.00
2022-11-30T06:25:08.927Z,95.10
2022-11-30T06:28:36.473Z,96.40
2022-11-30T06:32:03.040Z,90.50
2022-11-30T06:35:46.991Z,89.70
2022-11-30T06:39:50.024Z,92.60
2022-11-30T06:43:11.591Z,91.00
2022-11-30T06:46:38.033Z,88.10
2022-11-30T06:50:05.835Z,92.00
2022-11-30T06:53:33.253Z,98.10
2022-11-30T06:56:59.483Z,90.80
2022-11-30T07:00:27.382Z,97.40
2022-11-30T07:03:54.586Z,95.00
2022-11-30T07:07:22.564Z,94.10
2022-11-30T07:10:49.812Z,102.90
2022-11-30T07:14:16.654Z,99.70
2022-11-30T07:17:43.063Z,99.30
2022-11-30T07:21:11.432Z,97.00
2022-11-30T07:24:57.271Z,104.20
2022-11-30T07:28:25.206Z,98.90
2022-11-30T07:31:55.187Z,106.80
2022-11-30T07:35:23.028Z,95.30
2022-11-30T07:38:49.792Z,98.80
2022-11-30T07:42:17.253Z,92.00
2022-11-30T07:45:44.209Z,149.90
2022-11-30T07:49:12.594Z,202.90
2022-11-30T07:52:39.485Z,93.30
2022-11-30T07:56:08.463Z,89.00
2022-11-30T07:59:34.826Z,92.20
2022-11-30T08:03:01.306Z,85.50
2022-11-30T08:06:31.807Z,80.30
2022-11-30T08:09:58.343Z,81.40
2022-11-30T08:13:25.115Z,68.20
2022-11-30T08:16:52.095Z,71.10
2022-11-30T08:20:18.881Z,69.60
2022-11-30T08:23:47.172Z,73.20
2022-11-30T08:27:14.205Z,70.60
2022-11-30T08:30:47.207Z,77.40
2022-11-30T08:34:16.125Z,85.20
2022-11-30T08:37:42.759Z,81.80
2022-11-30T08:41:12.170Z,80.90
2022-11-30T08:44:39.046Z,82.30
2022-11-30T08:48:16.575Z,87.60
2022-11-30T08:52:15.368Z,79.90
2022-11-30T08:55:30.513Z,79.00
2022-11-30T08:58:57.889Z,80.40
2022-11-30T09:02:24.723Z,79.20
2022-11-30T09:05:51.822Z,80.20
2022-11-30T09:09:18.514Z,77.20
2022-11-30T09:12:48.676Z,83.20
2022-11-30T09:16:17.213Z,81.50
2022-11-30T09:19:45.172Z,78.00
2022-11-30T09:23:15.034Z,78.80
2022-11-30T09:26:41.792Z,79.60
2022-11-30T09:30:13.112Z,85.50
2022-11-30T09:33:40.425Z,83.30
2022-11-30T09:37:07.023Z,81.20
2022-11-30T09:40:35.852Z,84.30
2022-11-30T09:44:11.910Z,93.60
2022-11-30T09:48:22.768Z,110.90
2022-11-30T09:51:52.314Z,85.40
2022-11-30T09:55:26.754Z,87.20
2022-11-30T09:58:57.746Z,79.90
2022-11-30T10:02:30.025Z,87.40
2022-11-30T10:06:05.812Z,76.50
2022-11-30T10:10:02.934Z,73.40
2022-11-30T10:13:48.787Z,78.00
2022-11-30T10:17:28.953Z,78.20
2022-11-30T10:21:05.709Z,78.20
2022-11-30T10:24:51.577Z,77.80
2022-11-30T10:28:46.513Z,86.90
2022-11-30T10:32:21.948Z,86.70
2022-11-30T10:35:53.794Z,91.10
2022-11-30T10:39:26.695Z,85.10
2022-11-30T10:43:07.520Z,77.00
2022-11-30T10:46:38.557Z,77.00
2022-11-30T10:50:07.044Z,96.60
2022-11-30T10:53:34.929Z,110.20
2022-11-30T10:57:04.285Z,104.70
2022-11-30T11:00:31.341Z,73.20
2022-11-30T11:04:11.937Z,74.90
2022-11-30T11:07:49.778Z,77.70
2022-11-30T11:11:31.781Z,78.20
2022-11-30T11:15:18.685Z,106.00
2022-11-30T11:18:57.949Z,93.80
2022-11-30T11:22:26.225Z,95.10
2022-11-30T11:25:55.985Z,59.60
2022-11-30T11:29:35.155Z,69.60
2022-11-30T11:33:03.729Z,66.50
2022-11-30T11:36:32.895Z,74.30
2022-11-30T11:40:06.934Z,67.00
2022-11-30T11:43:36.043Z,77.00
2022-11-30T11:47:05.779Z,86.20
2022-11-30T11:54:30.251Z,62.80
2022-11-30T11:58:05.806Z,69.70
2022-11-30T12:01:46.431Z,57.80
2022-11-30T12:05:17.777Z,57.90
2022-11-30T12:08:51.888Z,54.60
2022-11-30T12:12:18.557Z,56.30
2022-11-30T12:15:58.093Z,63.00
2022-11-30T12:19:29.009Z,60.10
2022-11-30T12:23:09.900Z,53.90
2022-11-30T12:26:44.393Z,56.30
2022-11-30T12:30:19.801Z,56.30
2022-11-30T12:34:02.745Z,54.00
2022-11-30T12:37:40.744Z,72.50
2022-11-30T12:41:32.022Z,51.20
2022-11-30T12:45:06.764Z,48.80
2022-11-30T12:48:42.742Z,45.70
2022-11-30T12:52:22.317Z,47.30
2022-11-30T12:55:58.312Z,44.60
2022-11-30T12:59:33.968Z,47.10
2022-11-30T13:03:30.748Z,56.30
2022-11-30T13:07:02.704Z,49.00
2022-11-30T13:10:36.857Z,55.70
2022-11-30T13:14:06.243Z,57.60
2022-11-30T13:17:33.227Z,76.90
2022-11-30T13:21:07.077Z,58.50
2022-11-30T13:24:41.108Z,50.30
2022-11-30T13:28:16.579Z,45.10
2022-11-30T13:31:49.177Z,46.80
2022-11-30T13:35:43.832Z,45.50
2022-11-30T13:39:37.578Z,53.10
2022-11-30T13:43:04.289Z,57.50
2022-11-30T13:46:31.355Z,49.70
2022-11-30T13:50:01.475Z,46.90
2022-11-30T13:53:34.209Z,45.70
2022-11-30T13:57:01.273Z,56.20
2022-11-30T14:00:50.079Z,51.40
2022-11-30T14:04:34.097Z,46.70
2022-11-30T14:08:32.833Z,50.10
2022-11-30T14:11:59.759Z,51.80
2022-11-30T14:16:00.758Z,54.30
2022-11-30T14:19:30.402Z,50.10
2022-11-30T14:22:57.437Z,51.30
2022-11-30T14:26:33.875Z,54.80
2022-11-30T14:30:07.462Z,46.00
2022-11-30T14:33:44.528Z,53.20
2022-11-30T14:37:20.288Z,51.90
2022-11-30T14:40:58.011Z,59.10
2022-11-30T14:44:25.410Z,53.50
2022-11-30T14:47:57.777Z,52.50
2022-11-30T14:51:29.188Z,52.50
2022-11-30T14:55:00.650Z,49.00
2022-11-30T14:58:32.583Z,51.70
2022-11-30T15:02:02.425Z,55.50
2022-11-30T15:05:33.129Z,48.00
2022-11-30T15:09:02.551Z,46.20
2022-11-30T15:12:32.497Z,43.50
2022-11-30T15:15:59.771Z,45.70
2022-11-30T15:19:28.424Z,44.90
2022-11-30T15:22:55.065Z,46.80
2022-11-30T15:26:26.007Z,51.30
2022-11-30T15:29:59.407Z,47.00
2022-11-30T15:33:31.875Z,52.40
2022-11-30T15:37:04.527Z,49.10
2022-11-30T15:40:36.231Z,67.30
2022-11-30T15:44:03.691Z,55.50
2022-11-30T15:47:37.298Z,52.00
2022-11-30T15:54:50.396Z,65.20
2022-11-30T15:58:37.319Z,129.10
2022-11-30T16:02:08.948Z,65.50
2022-11-30T16:05:41.183Z,56.50
2022-11-30T16:09:22.811Z,57.70
2022-11-30T16:12:52.928Z,60.20
2022-11-30T16:16:24.277Z,53.10
2022-11-30T16:19:51.048Z,56.30
2022-11-30T16:23:20.273Z,56.50
2022-11-30T16:26:54.507Z,53.00
2022-11-30T16:30:23.810Z,53.00
2022-11-30T16:33:56.555Z,85.70
2022-11-30T16:37:27.064Z,63.90
2022-11-30T16:40:56.280Z,60.90
2022-11-30T16:44:25.391Z,59.40
2022-11-30T16:47:52.493Z,59.40
2022-11-30T16:51:26.001Z,60.10
2022-11-30T16:54:53.319Z,60.90
2022-11-30T16:58:23.699Z,55.60
2022-11-30T17:01:53.533Z,60.70
2022-11-30T17:05:24.259Z,69.30
2022-11-30T17:08:53.622Z,68.50
2022-11-30T17:12:24.923Z,66.70
2022-11-30T17:15:53.874Z,62.60
2022-11-30T17:19:25.187Z,61.20
2022-11-30T17:22:54.032Z,66.10
2022-11-30T17:26:25.611Z,66.50
2022-11-30T17:29:54.223Z,67.20
2022-11-30T17:33:22.129Z,59.90
2022-11-30T17:36:52.171Z,66.20
2022-11-30T17:40:19.255Z,59.20
2022-11-30T17:43:54.482Z,61.10
2022-11-30T17:47:22.763Z,68.10
2022-11-30T17:50:58.081Z,65.80
2022-11-30T17:54:27.650Z,58.20
2022-11-30T17:58:11.674Z,59.30
2022-11-30T18:01:41.849Z,69.80
2022-11-30T18:05:19.534Z,65.50
2022-11-30T18:08:50.173Z,62.70
2022-11-30T18:12:24.901Z,65.40
2022-11-30T18:15:52.234Z,65.70
2022-11-30T18:19:21.620Z,67.90
2022-11-30T18:22:51.824Z,59.70
2022-11-30T18:26:22.578Z,69.10
2022-11-30T18:29:49.127Z,63.30
2022-11-30T18:33:17.415Z,61.70
2022-11-30T18:36:44.199Z,65.40
2022-11-30T18:40:12.847Z,67.70
2022-11-30T18:43:40.577Z,61.80
2022-11-30T18:47:07.929Z,64.00
2022-11-30T18:50:36.661Z,63.90
2022-11-30T18:54:04.962Z,60.60
2022-11-30T18:57:33.044Z,61.70
2022-11-30T19:01:08.522Z,63.20
2022-11-30T19:04:40.338Z,60.80
2022-11-30T19:08:11.847Z,58.60
2022-11-30T19:11:43.926Z,60.00
2022-11-30T19:15:16.711Z,58.10
2022-11-30T19:18:47.626Z,60.40
2022-11-30T19:22:20.021Z,60.00
2022-11-30T19:25:49.148Z,63.30
2022-11-30T19:29:26.111Z,65.60
2022-11-30T19:33:01.955Z,64.50
2022-11-30T19:36:33.854Z,63.40
2022-11-30T19:40:04.443Z,59.80
2022-11-30T19:43:40.020Z,62.20
2022-11-30T19:47:09.845Z,49.80
2022-11-30T19:50:41.617Z,63.70
2022-11-30T19:54:17.365Z,64.20
2022-11-30T19:57:50.169Z,57.30
2022-11-30T20:01:24.173Z,60.30
2022-11-30T20:04:57.110Z,61.60
2022-11-30T20:08:33.869Z,60.30
2022-11-30T20:12:02.025Z,59.30
2022-11-30T20:15:29.905Z,56.80
2022-11-30T20:19:02.697Z,59.70
2022-11-30T20:22:30.938Z,57.70
2022-11-30T20:25:59.334Z,55.30
2022-11-30T20:29:30.290Z,57.70
2022-11-30T20:32:57.380Z,55.20
2022-11-30T20:36:26.945Z,60.60
2022-11-30T20:39:54.481Z,59.90
2022-11-30T20:43:21.266Z,61.90
2022-11-30T20:46:48.941Z,60.30
2022-11-30T20:50:16.442Z,54.70
2022-11-30T20:53:44.149Z,54.50
2022-11-30T20:57:12.972Z,50.90
2022-11-30T21:00:39.792Z,52.30
2022-11-30T21:04:08.898Z,51.50
2022-11-30T21:07:36.294Z,49.20
2022-11-30T21:11:07.589Z,52.30
2022-11-30T21:14:35.349Z,47.70
2022-11-30T21:18:03.458Z,47.00
2022-11-30T21:21:33.364Z,47.10
2022-11-30T21:25:07.666Z,46.60
2022-11-30T21:28:38.408Z,46.20
2022-11-30T21:32:11.088Z,46.80
2022-11-30T21:35:41.466Z,42.20
2022-11-30T21:39:09.516Z,43.20
2022-11-30T21:42:37.330Z,40.90
2022-11-30T21:46:09.717Z,39.10
2022-11-30T21:49:41.739Z,41.30
2022-11-30T21:53:11.329Z,56.80
2022-11-30T21:56:40.231Z,42.70
2022-11-30T22:00:08.133Z,39.30
2022-11-30T22:03:34.981Z,46.90
2022-11-30T22:07:01.617Z,39.70
2022-11-30T22:10:28.948Z,41.90
2022-11-30T22:13:57.449Z,41.70
2022-11-30T22:17:24.149Z,45.50
2022-11-30T22:20:51.338Z,48.80
2022-11-30T22:24:19.033Z,52.10
2022-11-30T22:27:45.957Z,47.00
2022-11-30T22:31:14.779Z,54.70
2022-11-30T22:34:42.256Z,43.90
2022-11-30T22:38:09.248Z,44.20
2022-11-30T22:41:36.835Z,47.20
2022-11-30T22:45:03.404Z,43.70
2022-11-30T22:48:32.199Z,38.50
2022-11-30T22:51:59.120Z,40.30
2022-11-30T22:55:26.481Z,37.70
2022-11-30T22:58:54.926Z,39.00
2022-11-30T23:02:24.276Z,41.70
2022-11-30T23:05:50.782Z,54.00
2022-11-30T23:09:20.279Z,46.20
2022-11-30T23:12:59.686Z,41.40
2022-11-30T23:16:27.581Z,40.00
2022-11-30T23:19:55.904Z,41.00
2022-11-30T23:23:25.879Z,43.30
2022-11-30T23:26:53.380Z,42.80
2022-11-30T23:30:20.580Z,44.10
2022-11-30T23:33:47.943Z,50.30
2022-11-30T23:37:15.446Z,48.60
2022-11-30T23:40:42.150Z,51.40
2022-11-30T23:44:09.794Z,50.10
2022-11-30T23:47:38.438Z,54.80
2022-11-30T23:51:08.299Z,48.20
2022-11-30T23:54:36.059Z,48.00
2022-11-30T23:58:03.127Z,42.10
